MRPV

Tobias Bolanos International Airport

San Jose, Costa Rica
MRPV 212300Z 2200/2224 33004KT 9999 BKN020 TX27/2218Z TN19/2211Z TEMPO 2200/2203 0800 FG BKN006 TEMPO 2202/2207 RA BKN020 TEMPO 2209/2215 05007KT TEMPO 2218/2224 26008KT 3000 TSRA BKN015CB
Issued Valid From Valid To
Sep-21 @ 23:00 UTC
(5 hours ago)
Sep-22 @ 00:00 UTC
(4 hours ago)
Sep-23 @ 00:00 UTC
(in 20 hours)
to
to
to
to
to
MRPV 212300Z 2200/2224 33004KT 9999 BKN020 TX27/2218Z TN19/2211Z TEMPO 2200/2203 0800 FG BKN006 TEMPO 2202/2207 RA BKN020 TEMPO 2209/2215 05007KT TEMPO 2218/2224 26008KT 3000 TSRA BKN015CB
Issued Sep-21 @ 23:00 UTC
(5 hours ago)
Valid From Sep-22 @ 00:00 UTC
(4 hours ago)
Valid To Sep-23 @ 00:00 UTC
(in 20 hours)
-
-
-
-
-